Time;durP1;ratioP1;P1;durP2;ratioP2;P2;SDS_P1;SDS_P2;PMS_P1;PMS_P2;Temp;Humidity;BMP_temperature;BMP_pressure;BME280_temperature;BME280_humidity;BME280_pressure;Samples;Min_cycle;Max_cycle;Signal;HPM_P1;HPM_P2
2022/05/17 00:53:42;;;;;;;8.80;3.20;;;;;;;;;;6151258;23;20195;31
2022/05/17 00:56:52;;;;;;;6.25;3.15;;;;;;;;;;6124956;23;20169;-90
2022/05/17 00:59:59;;;;;;;8.75;2.72;;;;;;;;;;6123230;23;20242;-92
2022/05/17 01:03:06;;;;;;;8.27;2.95;;;;;;;;;;6126346;23;20178;-91
2022/05/17 01:06:12;;;;;;;6.53;2.83;;;;;;;;;;6126708;23;20507;-90
2022/05/17 01:09:20;;;;;;;7.50;2.72;;;;;;;;;;6125060;23;20181;-91
2022/05/17 01:12:30;;;;;;;6.45;2.70;;;;;;;;;;6125981;23;20169;-90
2022/05/17 01:15:35;;;;;;;7.50;2.97;;;;;;;;;;6125710;23;20219;-92
2022/05/17 01:18:41;;;;;;;6.55;2.90;;;;;;;;;;6123628;23;20220;-92
2022/05/17 01:21:47;;;;;;;8.07;3.05;;;;;;;;;;6125945;23;20253;-91
2022/05/17 01:24:52;;;;;;;7.22;2.60;;;;;;;;;;6124358;23;20165;-91
2022/05/17 01:28:00;;;;;;;7.63;2.67;;;;;;;;;;6124948;23;20169;-91
2022/05/17 01:31:07;;;;;;;7.15;2.65;;;;;;;;;;6123143;23;20178;-90
2022/05/17 01:34:13;;;;;;;6.13;2.92;;;;;;;;;;6125113;23;20149;-91
2022/05/17 01:37:20;;;;;;;5.18;2.83;;;;;;;;;;6125717;23;20189;-93
2022/05/17 01:40:27;;;;;;;8.23;3.10;;;;;;;;;;6126138;23;20205;-90
2022/05/17 01:43:32;;;;;;;8.10;3.15;;;;;;;;;;6124927;23;20173;-91
2022/05/17 01:46:38;;;;;;;8.32;2.72;;;;;;;;;;6122531;23;20153;-91
2022/05/17 01:49:43;;;;;;;11.90;3.78;;;;;;;;;;6122308;23;20185;-91
2022/05/17 01:52:50;;;;;;;6.38;2.47;;;;;;;;;;6124694;23;20173;-91
2022/05/17 01:55:55;;;;;;;11.43;3.20;;;;;;;;;;6124582;23;20232;-91
2022/05/17 01:59:00;;;;;;;6.80;2.92;;;;;;;;;;6125070;23;20260;-91
2022/05/17 02:02:06;;;;;;;6.03;2.80;;;;;;;;;;6123874;23;20218;-91
2022/05/17 02:05:12;;;;;;;5.05;2.70;;;;;;;;;;6123505;23;20168;-91
2022/05/17 02:08:18;;;;;;;8.50;2.50;;;;;;;;;;6122273;23;20153;-91
2022/05/17 02:11:24;;;;;;;4.15;2.60;;;;;;;;;;6123995;23;20186;-90
2022/05/17 02:14:29;;;;;;;5.82;2.70;;;;;;;;;;6124993;23;20230;-91
2022/05/17 02:17:35;;;;;;;9.77;2.90;;;;;;;;;;6123775;23;20165;-91
2022/05/17 02:20:40;;;;;;;4.78;2.75;;;;;;;;;;6124429;23;20224;-90
2022/05/17 02:23:47;;;;;;;5.57;3.13;;;;;;;;;;6126594;23;20173;-92
2022/05/17 02:26:52;;;;;;;12.93;3.40;;;;;;;;;;6126374;23;20184;-92
2022/05/17 02:29:59;;;;;;;5.43;2.88;;;;;;;;;;6127909;23;20274;-92
2022/05/17 02:33:06;;;;;;;7.43;3.13;;;;;;;;;;6126534;23;20170;-89
2022/05/17 02:36:12;;;;;;;9.70;3.58;;;;;;;;;;6143660;23;20172;-92
2022/05/17 15:13:56;;;;;;;9.85;2.92;;;;;;;;;;6197966;23;20207;-91
2022/05/17 15:17:04;;;;;;;6.13;2.63;;;;;;;;;;6236863;23;20210;-91
2022/05/17 15:20:19;;;;;;;6.80;2.88;;;;;;;;;;6218789;23;20195;-92
2022/05/17 15:23:30;;;;;;;6.30;3.00;;;;;;;;;;6236214;23;20217;-91
2022/05/17 15:26:36;;;;;;;10.23;2.83;;;;;;;;;;6236344;23;20210;-90
2022/05/17 15:29:47;;;;;;;6.97;2.80;;;;;;;;;;6219998;23;20174;-90
2022/05/17 15:32:54;;;;;;;8.30;2.40;;;;;;;;;;6218746;23;20171;-90
2022/05/17 15:36:00;;;;;;;4.15;2.50;;;;;;;;;;6220428;23;20167;-91
2022/05/17 15:39:06;;;;;;;4.40;2.80;;;;;;;;;;6237863;22;20171;-92
2022/05/17 15:42:12;;;;;;;5.72;2.70;;;;;;;;;;6218748;23;20494;-90
2022/05/17 15:45:20;;;;;;;4.35;2.50;;;;;;;;;;6218983;23;20162;-92
2022/05/17 15:55:18;;;;;;;7.85;3.05;;;;;;;;;;6236399;23;20176;-90
2022/05/17 15:58:28;;;;;;;10.05;2.30;;;;;;;;;;6235892;23;20164;-90
2022/05/17 16:05:04;;;;;;;5.15;2.28;;;;;;;;;;6238355;23;20235;-91
2022/05/17 16:08:12;;;;;;;7.53;2.45;;;;;;;;;;6237717;22;20167;-92
2022/05/17 16:14:44;;;;;;;4.88;2.60;;;;;;;;;;6219253;23;20218;-92
2022/05/17 16:17:56;;;;;;;5.57;2.28;;;;;;;;;;6234749;23;20163;-90
2022/05/17 16:21:01;;;;;;;4.78;2.38;;;;;;;;;;6235722;23;20646;-92
2022/05/17 16:24:08;;;;;;;6.10;2.10;;;;;;;;;;6235829;23;20167;-91
2022/05/17 16:30:37;;;;;;;3.03;1.92;;;;;;;;;;6217286;23;20167;-92
2022/05/17 16:33:48;;;;;;;5.40;2.00;;;;;;;;;;6217630;23;20171;-91
2022/05/17 16:36:58;;;;;;;7.20;2.20;;;;;;;;;;6218979;23;20222;-92
2022/05/17 16:40:05;;;;;;;10.32;2.05;;;;;;;;;;6234943;23;20192;-91
2022/05/17 16:43:14;;;;;;;12.82;6.40;;;;;;;;;;6234581;23;20170;-92
2022/05/17 16:46:20;;;;;;;2.95;1.90;;;;;;;;;;6233928;23;20168;-92
2022/05/17 16:49:28;;;;;;;7.40;2.28;;;;;;;;;;6233094;23;20170;-92
2022/05/17 16:52:34;;;;;;;4.53;2.45;;;;;;;;;;6234446;22;20187;-89
2022/05/17 16:55:40;;;;;;;7.70;2.35;;;;;;;;;;6235479;23;20167;-88
2022/05/17 16:58:45;;;;;;;6.32;2.10;;;;;;;;;;6217683;23;20151;-87
2022/05/17 17:01:52;;;;;;;3.85;2.00;;;;;;;;;;6217946;23;20705;-88
2022/05/17 17:05:00;;;;;;;6.25;2.05;;;;;;;;;;6217208;23;20158;-90
2022/05/17 17:08:07;;;;;;;14.88;7.97;;;;;;;;;;6234575;23;20171;-91
2022/05/17 17:11:17;;;;;;;5.78;2.72;;;;;;;;;;6233435;23;20221;-91
2022/05/17 17:14:24;;;;;;;3.03;2.03;;;;;;;;;;6235650;23;20178;-91
2022/05/17 17:17:31;;;;;;;4.93;2.15;;;;;;;;;;6218973;23;20177;-92
2022/05/17 17:20:38;;;;;;;5.45;2.13;;;;;;;;;;6219309;23;20187;-91
2022/05/17 17:23:44;;;;;;;7.68;1.88;;;;;;;;;;6219046;23;20182;-93
2022/05/17 17:26:51;;;;;;;9.20;2.50;;;;;;;;;;6218625;23;20186;-92
2022/05/17 22:02:52;;;;;;;10.73;6.05;;;;;;;;;;6211758;23;20212;-91
2022/05/17 22:05:57;;;;;;;13.88;5.88;;;;;;;;;;6231377;23;20167;-90
2022/05/17 23:28:44;;;;;;;12.10;6.85;;;;;;;;;;6233238;23;20164;-91
2022/05/17 23:31:49;;;;;;;11.18;5.88;;;;;;;;;;6218883;23;20155;-90
2022/05/17 23:34:57;;;;;;;9.85;6.13;;;;;;;;;;6231785;23;20171;-90
2022/05/17 23:38:03;;;;;;;12.93;6.25;;;;;;;;;;6232772;23;20174;-90
2022/05/17 23:41:11;;;;;;;12.98;6.65;;;;;;;;;;6232416;22;20193;-92
2022/05/17 23:44:16;;;;;;;13.82;6.30;;;;;;;;;;6229692;23;20503;-91
2022/05/17 23:47:24;;;;;;;11.52;5.78;;;;;;;;;;6232038;23;20147;-90
2022/05/17 23:50:29;;;;;;;9.82;5.97;;;;;;;;;;6229947;23;20171;-90
2022/05/17 23:53:36;;;;;;;12.15;6.90;;;;;;;;;;6231021;23;20197;-91
2022/05/17 23:56:43;;;;;;;8.20;6.00;;;;;;;;;;6213219;23;20171;-92
2022/05/17 23:59:50;;;;;;;14.32;6.85;;;;;;;;;;6230691;23;20244;-92
